Time;durP1;ratioP1;P1;durP2;ratioP2;P2;SDS_P1;SDS_P2;PMS_P1;PMS_P2;Temp;Humidity;BMP_temperature;BMP_pressure;BME280_temperature;BME280_humidity;BME280_pressure;Samples;Min_cycle;Max_cycle;Signal;HPM_P1;HPM_P2
2024/03/21 00:00:51;;;;;;;18.30;16.63;;;;;;;15.35;71.60;101024.56;5012161;28;20230;-77
2024/03/21 00:03:16;;;;;;;17.67;16.17;;;;;;;15.37;71.49;101028.03;5011523;28;20204;-76
2024/03/21 00:05:43;;;;;;;17.73;16.37;;;;;;;15.34;71.51;101030.72;5011455;28;20237;-77
2024/03/21 00:08:09;;;;;;;17.13;15.53;;;;;;;15.33;72.29;101027.25;5010997;28;20204;-76
2024/03/21 00:10:36;;;;;;;16.60;14.87;;;;;;;15.32;72.68;101008.88;5010887;28;20222;-77
2024/03/21 00:13:03;;;;;;;17.47;15.73;;;;;;;15.27;73.13;101003.75;5010243;28;20207;-76
2024/03/21 00:15:30;;;;;;;19.93;18.10;;;;;;;15.20;73.28;100989.94;5011927;28;20457;-76
2024/03/21 00:17:55;;;;;;;19.93;17.83;;;;;;;15.19;72.90;100992.59;5011410;28;20721;-76
2024/03/21 00:20:22;;;;;;;17.50;16.00;;;;;;;15.18;73.46;100986.50;5021627;28;20274;-76
2024/03/21 00:22:47;;;;;;;18.83;16.93;;;;;;;15.16;73.86;100969.88;5013886;28;20207;-76
2024/03/21 00:25:16;;;;;;;18.40;17.00;;;;;;;15.14;74.71;100948.00;5012994;28;20207;-76
2024/03/21 00:27:42;;;;;;;19.20;17.40;;;;;;;15.13;74.98;100943.69;5030304;28;20305;-76
2024/03/21 00:30:10;;;;;;;18.53;16.90;;;;;;;15.11;74.83;100921.81;5030777;28;20312;-75
2024/03/21 00:32:36;;;;;;;18.27;16.70;;;;;;;15.10;75.32;100914.81;5030802;28;20210;-76
2024/03/21 00:35:02;;;;;;;20.03;18.27;;;;;;;15.03;75.24;100906.28;5030934;28;20210;-77
2024/03/21 00:37:28;;;;;;;16.13;14.83;;;;;;;14.85;74.73;100919.97;5030840;28;20258;-76
2024/03/21 00:39:54;;;;;;;16.03;14.50;;;;;;;14.25;75.55;100932.97;5029493;28;20249;-76
2024/03/21 00:42:20;;;;;;;14.80;13.63;;;;;;;14.07;76.98;100892.28;5031291;28;20209;-76
2024/03/21 00:44:47;;;;;;;15.13;13.80;;;;;;;13.76;78.52;100857.25;5031182;28;20566;-76
2024/03/21 00:47:13;;;;;;;14.60;13.30;;;;;;;13.70;79.07;100819.75;5031462;28;20665;-76
2024/03/21 00:49:40;;;;;;;14.23;13.13;;;;;;;13.48;80.71;100782.72;5030786;28;20240;-76
2024/03/21 00:52:06;;;;;;;14.83;13.63;;;;;;;13.60;82.09;100731.72;5011492;28;20747;-76
2024/03/21 00:54:32;;;;;;;14.70;13.57;;;;;;;13.70;82.20;100706.94;5011128;28;20210;-76
2024/03/21 00:56:57;;;;;;;14.77;13.57;;;;;;;13.90;81.21;100713.41;5010401;28;20273;-76
2024/03/21 00:59:24;;;;;;;14.30;13.10;;;;;;;14.00;81.15;100716.63;5011523;28;20250;-76
2024/03/21 01:01:50;;;;;;;14.47;13.03;;;;;;;14.16;80.98;100711.81;5010530;28;20583;-76
2024/03/21 01:04:18;;;;;;;13.97;12.70;;;;;;;14.20;80.61;100714.28;5014556;28;20289;-76
2024/03/21 01:06:44;;;;;;;14.27;13.07;;;;;;;14.06;80.23;100732.19;5029717;28;20202;-76
2024/03/21 01:09:11;;;;;;;15.17;13.77;;;;;;;14.03;79.86;100741.03;5029667;28;20295;-76
2024/03/21 01:11:37;;;;;;;13.53;12.53;;;;;;;14.09;79.73;100743.47;5030823;28;20583;-77
2024/03/21 01:14:03;;;;;;;16.60;13.33;;;;;;;14.18;79.54;100746.75;5030533;28;20214;-76
2024/03/21 01:16:29;;;;;;;13.83;12.60;;;;;;;14.18;79.42;100744.97;5031125;28;20206;-76
2024/03/21 01:18:55;;;;;;;12.80;11.90;;;;;;;14.26;79.29;100742.97;5029516;28;20353;-76
2024/03/21 01:21:22;;;;;;;13.70;12.60;;;;;;;14.24;79.43;100749.19;5022599;28;20300;-76
2024/03/21 01:23:48;;;;;;;16.57;15.03;;;;;;;14.24;79.40;100755.28;5030117;28;20210;-76
2024/03/21 01:26:14;;;;;;;18.10;16.70;;;;;;;14.22;79.16;100751.84;5030989;28;20230;-76
2024/03/21 01:28:40;;;;;;;19.50;17.80;;;;;;;14.24;79.20;100750.03;5030203;28;20372;-76
2024/03/21 01:31:14;;;;;;;19.67;18.17;;;;;;;14.26;78.60;100758.72;5030717;28;20210;-76
2024/03/21 01:33:40;;;;;;;19.87;17.83;;;;;;;14.28;78.83;100761.31;5029750;28;20228;-76
2024/03/21 01:36:06;;;;;;;20.57;18.67;;;;;;;14.27;78.59;100764.84;5030222;28;20317;-76
2024/03/21 01:38:34;;;;;;;19.70;17.70;;;;;;;14.29;78.33;100771.78;5029639;28;20280;-76
2024/03/21 01:40:59;;;;;;;19.07;17.47;;;;;;;14.32;78.13;100776.06;5030094;28;20234;-76
2024/03/21 01:43:26;;;;;;;20.50;18.60;;;;;;;14.32;77.99;100775.22;5030718;28;20310;-76
2024/03/21 01:46:09;;;;;;;19.57;18.07;;;;;;;14.33;77.88;100776.94;5030563;28;20259;-76
2024/03/21 01:48:36;;;;;;;18.40;17.03;;;;;;;14.32;77.84;100776.06;5029912;28;20203;-76
2024/03/21 01:51:02;;;;;;;19.97;18.47;;;;;;;14.30;78.23;100784.00;5023609;28;20211;-77
2024/03/21 01:53:30;;;;;;;18.67;17.17;;;;;;;14.32;77.93;100780.47;5014846;28;20667;-76
2024/03/21 01:55:59;;;;;;;19.30;17.60;;;;;;;14.34;78.27;100770.78;5014361;28;20235;-76
2024/03/21 01:58:25;;;;;;;19.87;18.27;;;;;;;14.28;78.50;100772.69;5014023;28;20309;-76
2024/03/21 02:00:51;;;;;;;18.80;17.30;;;;;;;14.24;78.84;100770.19;5014642;28;20268;-76
2024/03/21 02:03:17;;;;;;;17.73;16.23;;;;;;;13.64;80.07;100785.81;5014054;28;20205;-76
2024/03/21 02:05:42;;;;;;;16.73;15.30;;;;;;;13.09;83.63;100698.91;5014121;28;20214;-76
2024/03/21 02:08:09;;;;;;;15.40;14.10;;;;;;;12.89;86.55;100618.19;5014003;28;20257;-76
2024/03/21 02:10:35;;;;;;;14.67;13.50;;;;;;;12.72;87.99;100565.34;5014199;28;20728;-77
2024/03/21 02:13:05;;;;;;;16.03;14.63;;;;;;;12.72;89.08;100533.91;5013137;28;20697;-75
2024/03/21 02:15:31;;;;;;;17.33;15.53;;;;;;;12.71;89.63;100511.25;5013759;28;20202;-76
2024/03/21 02:17:58;;;;;;;16.47;14.93;;;;;;;12.85;89.09;100501.25;5013351;28;20225;-76
2024/03/21 02:20:24;;;;;;;15.93;14.73;;;;;;;12.97;88.20;100493.97;5024360;28;20783;-76
2024/03/21 02:22:51;;;;;;;16.80;15.33;;;;;;;13.08;88.10;100505.00;5013210;28;20214;-76
2024/03/21 02:25:17;;;;;;;15.37;14.17;;;;;;;13.22;87.51;100521.22;5012939;28;20207;-76
2024/03/21 02:27:43;;;;;;;14.77;13.43;;;;;;;13.32;87.16;100527.09;5010989;28;20728;-75
2024/03/21 02:30:10;;;;;;;16.00;14.60;;;;;;;13.43;87.02;100534.63;5013313;28;20312;-76
2024/03/21 02:32:38;;;;;;;15.40;14.13;;;;;;;13.56;86.38;100545.59;5032339;28;20217;-75
2024/03/21 02:35:05;;;;;;;15.93;14.50;;;;;;;13.63;85.62;100561.13;5032412;28;20703;-76
2024/03/21 02:37:31;;;;;;;14.57;13.13;;;;;;;13.64;85.12;100573.34;5032234;28;20233;-77
2024/03/21 02:39:58;;;;;;;15.30;13.87;;;;;;;13.75;85.14;100580.88;5032093;28;20384;-76
2024/03/21 02:42:25;;;;;;;14.70;13.53;;;;;;;13.80;84.55;100601.75;5031524;28;20225;-76
2024/03/21 02:44:51;;;;;;;14.87;13.47;;;;;;;13.80;83.75;100609.63;5033344;28;20209;-77
2024/03/21 02:47:18;;;;;;;13.20;12.07;;;;;;;13.78;84.23;100608.81;5033875;28;20268;-76
2024/03/21 02:49:45;;;;;;;13.17;12.07;;;;;;;13.80;83.25;100623.59;5033687;28;20234;-76
2024/03/21 02:52:11;;;;;;;13.77;12.67;;;;;;;13.76;83.73;100608.00;5012608;28;20211;-75
2024/03/21 02:54:37;;;;;;;14.07;12.73;;;;;;;13.77;83.90;100612.31;5013238;28;20210;-76
2024/03/21 02:57:06;;;;;;;12.93;11.93;;;;;;;13.82;82.47;100647.16;5013350;28;20257;-76
2024/03/21 02:59:32;;;;;;;13.13;12.03;;;;;;;13.95;82.84;100642.41;5013490;28;20230;-76
2024/03/21 03:01:58;;;;;;;14.80;13.47;;;;;;;13.93;82.86;100639.81;5013209;28;20672;-76
2024/03/21 03:04:24;;;;;;;14.50;13.07;;;;;;;13.94;82.68;100654.69;5013195;28;20234;-76
2024/03/21 03:06:50;;;;;;;13.87;12.50;;;;;;;13.95;82.36;100660.78;5012904;28;20853;-76
2024/03/21 03:09:16;;;;;;;13.67;12.47;;;;;;;14.00;82.40;100661.50;5013699;28;20261;-76
2024/03/21 03:11:42;;;;;;;14.00;12.67;;;;;;;14.02;81.20;100676.31;5013251;28;20211;-77
2024/03/21 03:14:09;;;;;;;13.67;12.50;;;;;;;14.06;80.65;100682.31;5012878;28;20207;-76
2024/03/21 03:16:35;;;;;;;13.23;12.13;;;;;;;14.08;80.90;100691.88;5013635;28;20213;-76
2024/03/21 03:19:03;;;;;;;13.67;12.47;;;;;;;14.08;80.77;100697.13;5016555;28;20264;-76
2024/03/21 03:21:29;;;;;;;12.77;11.77;;;;;;;14.07;80.86;100699.78;5020746;28;20209;-76
2024/03/21 03:23:55;;;;;;;12.47;11.33;;;;;;;14.05;81.15;100702.47;5012752;28;20253;-76
2024/03/21 03:26:21;;;;;;;14.03;12.60;;;;;;;14.04;80.99;100699.88;5013257;28;20198;-76
2024/03/21 03:28:47;;;;;;;12.97;11.87;;;;;;;14.03;81.21;100696.41;5012154;28;20223;-76
2024/03/21 03:31:14;;;;;;;11.63;10.60;;;;;;;14.01;80.01;100713.09;5013591;28;20206;-76
2024/03/21 03:36:25;;;;;;;11.93;10.90;;;;;;;13.96;79.04;100738.63;5012635;28;20636;-76
2024/03/21 03:38:51;;;;;;;12.93;11.63;;;;;;;13.99;79.35;100743.78;5013187;28;20235;-77
2024/03/21 03:41:17;;;;;;;12.73;11.50;;;;;;;14.07;79.17;100752.28;5012590;28;20211;-76
2024/03/21 03:43:44;;;;;;;12.43;11.30;;;;;;;14.13;77.50;100778.34;5012138;28;20207;-76
2024/03/21 03:46:10;;;;;;;11.90;10.77;;;;;;;14.16;78.18;100791.41;5012500;28;20231;-77
2024/03/21 03:48:38;;;;;;;11.27;10.37;;;;;;;14.19;77.63;100795.72;5012749;28;20285;-76
2024/03/21 03:51:05;;;;;;;12.83;11.73;;;;;;;14.22;77.05;100817.50;5015189;28;20210;-76
2024/03/21 03:53:30;;;;;;;12.57;11.57;;;;;;;14.11;78.26;100809.03;5012772;28;20207;-76
2024/03/21 03:55:57;;;;;;;12.30;11.17;;;;;;;14.08;79.05;100793.41;5012227;28;20634;-76
2024/03/21 03:58:22;;;;;;;13.57;12.37;;;;;;;13.64;80.32;100785.81;5011885;28;20728;-74
2024/03/21 04:00:55;;;;;;;12.90;11.90;;;;;;;13.40;81.31;100750.59;5012524;28;20277;-76
2024/03/21 04:03:21;;;;;;;13.73;11.70;;;;;;;13.44;81.23;100731.25;5012237;28;20222;-76
2024/03/21 04:05:56;;;;;;;13.23;12.07;;;;;;;13.22;82.07;100716.94;5012929;28;20234;-76
2024/03/21 04:08:22;;;;;;;12.53;11.47;;;;;;;12.86;83.14;100695.97;5012124;28;20231;-75
2024/03/21 04:10:48;;;;;;;11.83;10.93;;;;;;;12.66;84.35;100667.66;5012368;28;20292;-76
2024/03/21 04:13:14;;;;;;;12.70;11.60;;;;;;;12.62;84.07;100658.16;5029540;28;20232;-76
2024/03/21 04:15:40;;;;;;;13.47;12.20;;;;;;;12.62;84.61;100647.69;5032225;28;20214;-77
2024/03/21 04:18:05;;;;;;;12.50;11.50;;;;;;;12.67;85.16;100636.19;5031360;28;20229;-76
2024/03/21 04:20:32;;;;;;;14.17;12.73;;;;;;;12.96;84.56;100633.72;5027283;28;20261;-76
2024/03/21 04:22:58;;;;;;;12.47;11.47;;;;;;;12.93;83.12;100655.66;5012039;28;20239;-76
2024/03/21 04:25:26;;;;;;;12.73;11.53;;;;;;;13.00;84.05;100658.97;5012023;28;20208;-76
2024/03/21 04:27:51;;;;;;;13.47;12.27;;;;;;;13.16;83.05;100662.94;5011410;28;20720;-76
2024/03/21 04:30:18;;;;;;;13.23;12.23;;;;;;;12.77;84.75;100675.28;5012094;28;20223;-76
2024/03/21 04:32:43;;;;;;;12.67;11.60;;;;;;;12.46;86.26;100642.78;5012125;28;20348;-76
2024/03/21 04:35:10;;;;;;;14.03;12.73;;;;;;;12.32;88.48;100606.47;5011873;28;20685;-76
2024/03/21 04:37:36;;;;;;;13.60;12.50;;;;;;;12.19;89.72;100576.25;5012026;28;20592;-76
2024/03/21 04:40:05;;;;;;;14.13;12.80;;;;;;;12.06;91.91;100530.34;5011230;28;20695;-77
2024/03/21 04:42:31;;;;;;;14.70;13.40;;;;;;;11.99;92.44;100513.94;5027003;28;20203;-76
2024/03/21 04:44:57;;;;;;;14.53;13.27;;;;;;;11.80;94.19;100503.00;5037040;28;20677;-76
2024/03/21 04:47:24;;;;;;;15.37;14.07;;;;;;;11.75;95.63;100470.00;5030989;28;20248;-75
2024/03/21 04:49:54;;;;;;;18.97;17.07;;;;;;;11.67;97.23;100442.28;5031134;28;20246;-76
2024/03/21 04:52:20;;;;;;;21.23;19.10;;;;;;;11.59;99.78;100409.34;5012897;28;20210;-76
2024/03/21 04:54:48;;;;;;;23.90;21.20;;;;;;;11.56;100.00;100344.09;5011985;28;20213;-76
2024/03/21 04:57:16;;;;;;;30.40;25.03;;;;;;;11.58;100.00;100300.47;5010967;28;20213;-75
2024/03/21 04:59:41;;;;;;;25.07;22.27;;;;;;;11.73;100.00;100268.69;5011484;28;20261;-76
2024/03/21 05:02:07;;;;;;;27.10;24.27;;;;;;;11.79;100.00;100244.13;5011023;28;20408;-75
2024/03/21 05:04:33;;;;;;;32.77;26.07;;;;;;;11.95;100.00;100250.69;5010879;28;20234;-76
2024/03/21 05:06:59;;;;;;;29.20;26.23;;;;;;;12.08;100.00;100252.06;5011405;28;20286;-75
2024/03/21 05:09:24;;;;;;;35.90;26.47;;;;;;;12.20;100.00;100263.09;5011292;28;20258;-77
2024/03/21 05:11:54;;;;;;;30.23;25.80;;;;;;;12.31;100.00;100281.97;5012234;28;20645;-75
2024/03/21 05:14:21;;;;;;;30.40;25.60;;;;;;;12.41;100.00;100303.50;5011022;28;20238;-76
2024/03/21 05:16:47;;;;;;;33.07;26.60;;;;;;;12.40;100.00;100320.09;5011709;28;20289;-77
2024/03/21 05:19:13;;;;;;;28.27;25.40;;;;;;;12.45;100.00;100329.53;5014247;28;20233;-76
2024/03/21 05:21:39;;;;;;;30.13;26.50;;;;;;;12.47;100.00;100350.44;5023789;28;20207;-76
2024/03/21 05:24:05;;;;;;;28.37;25.53;;;;;;;12.51;100.00;100358.16;5011159;28;20264;-76
2024/03/21 05:26:32;;;;;;;27.83;25.10;;;;;;;12.48;100.00;100367.84;5011151;28;20234;-76
2024/03/21 05:28:57;;;;;;;29.63;26.43;;;;;;;12.51;100.00;100384.34;5025687;28;20218;-76
2024/03/21 05:31:26;;;;;;;26.87;24.33;;;;;;;12.49;100.00;100388.75;5030718;28;20656;-76
2024/03/21 05:33:53;;;;;;;26.90;24.37;;;;;;;12.63;100.00;100409.34;5030824;28;20229;-76
2024/03/21 05:36:19;;;;;;;24.93;22.70;;;;;;;12.69;100.00;100426.63;5031227;28;20244;-76
2024/03/21 05:38:45;;;;;;;27.27;24.37;;;;;;;12.76;100.00;100451.75;5022296;28;20229;-76
2024/03/21 05:41:12;;;;;;;25.37;23.07;;;;;;;12.85;100.00;100471.59;5029985;28;20260;-76
2024/03/21 05:43:38;;;;;;;27.27;24.30;;;;;;;12.81;100.00;100475.22;5030164;28;20213;-76
2024/03/21 05:46:05;;;;;;;29.23;26.03;;;;;;;12.57;100.00;100493.28;5031201;28;20587;-77
2024/03/21 05:48:32;;;;;;;30.53;27.47;;;;;;;12.55;100.00;100479.38;5021457;28;20237;-76
2024/03/21 05:50:59;;;;;;;25.07;22.57;;;;;;;12.71;100.00;100472.81;5031169;28;20214;-76
2024/03/21 05:53:24;;;;;;;23.13;20.90;;;;;;;12.83;100.00;100489.13;5012115;28;20715;-76
2024/03/21 05:55:56;;;;;;;27.57;24.93;;;;;;;12.76;100.00;100495.41;5011123;28;20309;-76
2024/03/21 05:58:22;;;;;;;22.37;20.47;;;;;;;12.88;100.00;100497.69;5010343;28;20258;-76
2024/03/21 06:00:54;;;;;;;26.53;24.03;;;;;;;12.90;100.00;100522.09;5010935;28;20212;-76
2024/03/21 06:03:20;;;;;;;26.40;23.90;;;;;;;12.69;100.00;100511.28;5010333;28;20265;-76
2024/03/21 06:05:48;;;;;;;31.20;26.13;;;;;;;12.77;100.00;100497.16;5011084;28;20248;-76
2024/03/21 06:08:14;;;;;;;30.50;23.97;;;;;;;12.88;100.00;100487.22;5010805;28;20207;-76
2024/03/21 06:10:40;;;;;;;28.03;25.40;;;;;;;12.88;100.00;100481.97;5011020;28;20288;-76
2024/03/21 06:13:05;;;;;;;30.77;26.83;;;;;;;12.94;100.00;100494.06;5009808;28;20207;-76
2024/03/21 06:15:32;;;;;;;31.00;25.83;;;;;;;12.97;100.00;100505.31;5010597;28;20249;-76
2024/03/21 06:17:57;;;;;;;29.00;25.10;;;;;;;12.89;100.00;100497.66;5008682;28;20227;-75
2024/03/21 06:20:23;;;;;;;30.20;27.27;;;;;;;12.52;100.00;100484.69;5027597;28;20260;-77
2024/03/21 06:22:50;;;;;;;34.17;29.43;;;;;;;12.56;100.00;100477.63;5019504;28;20203;-76
2024/03/21 06:25:17;;;;;;;33.13;27.43;;;;;;;12.69;100.00;100456.28;5013124;28;20245;-76
2024/03/21 06:27:43;;;;;;;32.90;27.33;;;;;;;12.81;100.00;100457.72;5012005;28;20229;-76
2024/03/21 06:30:10;;;;;;;26.50;24.07;;;;;;;12.95;100.00;100469.59;5011023;28;20330;-77
2024/03/21 06:32:36;;;;;;;30.37;26.50;;;;;;;13.02;100.00;100490.34;5013151;28;20317;-78
2024/03/21 06:35:02;;;;;;;35.20;28.30;;;;;;;13.03;100.00;100504.28;5011686;28;20207;-78
2024/03/21 06:37:31;;;;;;;29.77;26.63;;;;;;;13.10;100.00;100511.94;5014063;28;20203;-77
2024/03/21 06:39:59;;;;;;;29.83;26.70;;;;;;;13.07;100.00;100529.50;5014797;28;20241;-78
2024/03/21 06:42:24;;;;;;;29.17;26.27;;;;;;;13.16;100.00;100525.75;5013952;28;20202;-77
2024/03/21 06:44:50;;;;;;;31.33;28.00;;;;;;;13.04;100.00;100543.56;5014870;28;20574;-77
2024/03/21 06:47:16;;;;;;;33.57;29.93;;;;;;;12.76;100.00;100524.22;5014341;28;20269;-76
2024/03/21 06:49:42;;;;;;;41.70;30.93;;;;;;;12.79;100.00;100508.44;5017183;28;20237;-76
2024/03/21 06:52:07;;;;;;;36.93;30.40;;;;;;;12.67;100.00;100494.75;5032950;28;20230;-76
2024/03/21 06:54:34;;;;;;;35.77;30.87;;;;;;;12.29;100.00;100485.31;5033843;28;20295;-76
2024/03/21 06:57:00;;;;;;;36.60;30.60;;;;;;;12.42;100.00;100464.91;5033412;28;20206;-77
2024/03/21 06:59:27;;;;;;;40.83;33.03;;;;;;;12.39;100.00;100458.00;5033193;28;20247;-75
2024/03/21 07:01:53;;;;;;;39.60;31.50;;;;;;;12.24;100.00;100459.22;5033881;28;20240;-73
2024/03/21 07:04:19;;;;;;;39.97;31.43;;;;;;;12.06;100.00;100451.84;5033851;28;20216;-76
2024/03/21 07:06:45;;;;;;;36.67;31.37;;;;;;;12.26;100.00;100448.72;5034104;28;20230;-75
2024/03/21 07:09:12;;;;;;;42.50;31.73;;;;;;;12.02;100.00;100437.13;5026458;28;20733;-74
2024/03/21 07:11:37;;;;;;;33.33;29.80;;;;;;;11.95;100.00;100428.56;5022099;28;20210;-75
2024/03/21 07:14:05;;;;;;;38.83;30.30;;;;;;;11.75;100.00;100417.69;5019694;28;20224;-75
2024/03/21 07:16:31;;;;;;;35.70;30.73;;;;;;;11.83;100.00;100397.44;5033479;28;20233;-76
2024/03/21 07:18:57;;;;;;;39.03;29.73;;;;;;;11.96;100.00;100409.34;5033255;28;20221;-76
2024/03/21 07:21:23;;;;;;;41.97;31.63;;;;;;;12.08;100.00;100419.50;5031734;28;20770;-76
2024/03/21 07:23:49;;;;;;;38.73;31.97;;;;;;;12.14;100.00;100426.34;5013685;28;20207;-77
2024/03/21 07:26:14;;;;;;;41.53;31.50;;;;;;;11.94;100.00;100431.22;5013688;28;20229;-75
2024/03/21 07:28:41;;;;;;;39.77;32.07;;;;;;;12.15;100.00;100417.59;5012798;28;20419;-77
2024/03/21 07:31:08;;;;;;;43.03;30.50;;;;;;;12.35;100.00;100426.69;5013274;28;20211;-76
2024/03/21 07:33:34;;;;;;;37.47;30.20;;;;;;;12.51;100.00;100446.34;5013565;28;20199;-75
2024/03/21 07:35:59;;;;;;;43.13;30.30;;;;;;;12.52;100.00;100477.69;5013319;28;20200;-76
2024/03/21 07:38:26;;;;;;;39.37;30.57;;;;;;;12.43;100.00;100491.03;5012969;28;20277;-76
2024/03/21 07:40:55;;;;;;;34.57;27.70;;;;;;;12.26;100.00;100494.06;5013174;28;20239;-77
2024/03/21 07:43:21;;;;;;;31.13;27.63;;;;;;;12.59;100.00;100493.25;5012229;28;20285;-77
2024/03/21 07:45:46;;;;;;;31.87;26.73;;;;;;;12.62;100.00;100516.72;5013299;28;20210;-77
2024/03/21 07:48:14;;;;;;;34.33;28.20;;;;;;;12.37;100.00;100503.41;5012788;28;20249;-76
2024/03/21 07:50:39;;;;;;;29.23;26.10;;;;;;;12.48;100.00;100496.16;5020758;28;20230;-76
2024/03/21 07:53:07;;;;;;;30.93;26.13;;;;;;;12.34;100.00;100493.03;5013158;28;20199;-77
2024/03/21 07:55:32;;;;;;;29.40;23.50;;;;;;;12.55;100.00;100515.16;5012523;28;20202;-76
2024/03/21 07:57:59;;;;;;;22.30;19.90;;;;;;;12.48;100.00;100536.25;5012625;28;20262;-76
2024/03/21 08:00:24;;;;;;;20.97;18.87;;;;;;;12.54;100.00;100558.81;5012557;28;20646;-76
2024/03/21 08:02:51;;;;;;;17.97;16.47;;;;;;;12.73;100.00;100584.56;5012695;28;20207;-77
2024/03/21 08:05:17;;;;;;;18.67;16.97;;;;;;;12.85;100.00;100619.16;5012973;28;20261;-76
2024/03/21 08:07:44;;;;;;;14.60;13.50;;;;;;;12.88;100.00;100647.91;5021553;28;20570;-76
2024/03/21 08:10:10;;;;;;;13.10;11.83;;;;;;;12.78;98.95;100695.31;5032134;28;20246;-75
2024/03/21 08:12:36;;;;;;;11.53;10.63;;;;;;;12.51;97.17;100742.22;5029868;28;20292;-76
2024/03/21 08:15:02;;;;;;;10.27;9.43;;;;;;;12.34;95.48;100780.97;5012863;28;20298;-76
2024/03/21 08:17:27;;;;;;;9.57;8.73;;;;;;;12.08;95.43;100800.66;5019070;28;20271;-76
2024/03/21 08:19:54;;;;;;;9.00;8.30;;;;;;;12.06;95.49;100811.16;5032029;28;20635;-76
2024/03/21 08:22:21;;;;;;;8.00;7.30;;;;;;;11.94;94.26;100823.63;5031682;28;20198;-76
2024/03/21 08:24:48;;;;;;;8.10;7.50;;;;;;;12.06;94.41;100833.84;5020673;28;20833;-76
2024/03/21 08:27:14;;;;;;;7.87;7.20;;;;;;;12.25;93.07;100847.44;5027003;28;20669;-76
2024/03/21 08:29:43;;;;;;;7.23;6.63;;;;;;;12.21;91.91;100882.41;5015838;28;20232;-76
2024/03/21 08:32:08;;;;;;;6.93;6.43;;;;;;;12.18;90.33;100906.03;5031860;28;20285;-76
2024/03/21 08:34:34;;;;;;;6.93;6.37;;;;;;;12.13;90.21;100934.91;5013881;28;20302;-76
2024/03/21 08:37:00;;;;;;;7.07;6.50;;;;;;;12.15;90.13;100938.38;5013784;28;20233;-76
2024/03/21 08:39:27;;;;;;;6.97;6.37;;;;;;;12.31;89.54;100963.38;5031554;28;20295;-77
2024/03/21 08:41:53;;;;;;;7.23;6.70;;;;;;;12.26;90.21;100954.72;5030879;28;20236;-76
2024/03/21 08:44:19;;;;;;;8.40;7.77;;;;;;;12.38;90.55;100963.25;5018682;28;20687;-77
2024/03/21 08:46:45;;;;;;;10.33;9.53;;;;;;;12.25;90.63;100963.50;5015992;28;20234;-76
2024/03/21 08:49:11;;;;;;;8.97;8.23;;;;;;;11.78;90.36;100982.56;5031346;28;20226;-75
2024/03/21 08:51:38;;;;;;;9.07;8.47;;;;;;;11.89;89.49;100996.34;5030642;28;20672;-76
2024/03/21 08:54:03;;;;;;;9.03;8.33;;;;;;;11.66;88.13;101026.28;5031564;28;20237;-76
2024/03/21 08:56:37;;;;;;;9.57;8.87;;;;;;;11.18;86.61;101070.47;5033141;28;20233;-74
2024/03/21 08:59:03;;;;;;;9.77;9.03;;;;;;;11.04;88.19;101068.00;5031979;28;20308;-77
2024/03/21 09:01:29;;;;;;;10.77;9.10;;;;;;;10.90;88.15;101039.44;5029189;28;20210;-77
2024/03/21 09:03:55;;;;;;;10.83;9.93;;;;;;;10.76;88.81;101054.34;5032220;28;20205;-77
2024/03/21 09:06:21;;;;;;;11.63;10.73;;;;;;;10.87;89.73;101025.53;5031218;28;20239;-77
2024/03/21 09:08:47;;;;;;;12.50;11.20;;;;;;;10.84;89.24;101034.28;5032225;28;20245;-76
2024/03/21 09:11:13;;;;;;;11.83;10.83;;;;;;;10.93;89.22;101042.00;5032364;28;20283;-78
2024/03/21 09:13:40;;;;;;;11.47;10.57;;;;;;;10.58;88.96;101054.53;5031499;28;20202;-76
2024/03/21 09:16:07;;;;;;;13.27;11.37;;;;;;;10.55;89.65;101046.75;5031781;28;20611;-77
2024/03/21 09:18:32;;;;;;;11.33;10.43;;;;;;;10.81;89.13;101034.28;5031593;28;20259;-76
2024/03/21 09:21:02;;;;;;;11.00;10.10;;;;;;;10.52;88.63;101063.28;5032542;28;20202;-76
2024/03/21 09:23:28;;;;;;;11.57;10.57;;;;;;;9.99;90.77;101052.38;5032950;28;20656;-76
2024/03/21 09:25:58;;;;;;;11.03;10.17;;;;;;;9.82;92.40;101025.53;5033265;28;20301;-74
2024/03/21 09:28:24;;;;;;;11.83;10.60;;;;;;;9.83;94.79;100968.16;5032019;28;20582;-77
2024/03/21 09:30:51;;;;;;;12.43;11.43;;;;;;;9.69;96.28;100942.19;5032548;28;20213;-77
2024/03/21 09:33:17;;;;;;;12.68;11.70;;;;;;;10.03;95.28;100931.50;5030249;28;20457;-77
2024/03/21 09:35:44;;;;;;;10.70;9.87;;;;;;;9.84;95.36;100942.94;5032598;28;20323;-77
2024/03/21 09:38:10;;;;;;;9.93;9.07;;;;;;;10.00;94.62;100939.31;5033273;28;20231;-76
2024/03/21 09:40:36;;;;;;;8.43;7.63;;;;;;;9.62;95.12;100942.25;5032003;28;20243;-77
2024/03/21 09:43:03;;;;;;;7.43;6.73;;;;;;;9.52;95.86;100947.50;5031320;28;20213;-76
2024/03/21 09:45:33;;;;;;;6.17;5.67;;;;;;;9.82;93.41;100970.78;5032231;28;20228;-78
2024/03/21 09:48:00;;;;;;;5.13;4.60;;;;;;;9.81;89.28;101055.06;5031920;28;20211;-77
2024/03/21 09:50:27;;;;;;;4.47;4.07;;;;;;;9.94;87.93;101104.53;5030777;28;20318;-76
2024/03/21 09:52:52;;;;;;;5.20;4.80;;;;;;;9.70;89.01;101135.94;5031676;28;20208;-76
2024/03/21 09:55:19;;;;;;;4.77;4.30;;;;;;;9.87;89.99;101105.47;5031456;28;20758;-76
2024/03/21 09:57:45;;;;;;;5.30;4.80;;;;;;;9.57;90.04;101101.22;5031205;28;20203;-76
2024/03/21 10:00:15;;;;;;;4.47;4.17;;;;;;;9.33;92.06;101089.16;5033807;28;20320;-76
2024/03/21 10:02:41;;;;;;;5.73;5.13;;;;;;;9.34;93.50;101052.69;5031412;28;20225;-78
2024/03/21 10:05:10;;;;;;;7.07;6.37;;;;;;;9.31;96.81;101004.94;5032094;28;20288;-78
2024/03/21 10:07:36;;;;;;;8.27;7.47;;;;;;;9.20;100.00;100932.06;5032864;28;20593;-76
2024/03/21 10:10:04;;;;;;;8.53;7.83;;;;;;;9.14;98.85;100930.34;5031581;28;20237;-76
2024/03/21 10:12:30;;;;;;;7.40;6.50;;;;;;;9.32;98.20;100916.34;5032834;28;20228;-77
2024/03/21 10:14:56;;;;;;;6.33;5.73;;;;;;;9.40;96.66;100944.13;5035173;28;20642;-75
2024/03/21 10:17:22;;;;;;;6.23;5.67;;;;;;;9.24;96.05;100980.66;5035491;28;20282;-78
2024/03/21 10:19:48;;;;;;;6.03;5.53;;;;;;;9.05;96.68;100971.19;5035651;28;20232;-78
2024/03/21 10:22:18;;;;;;;6.00;4.83;;;;;;;9.09;95.90;100972.91;5034785;28;20209;-75
2024/03/21 10:24:44;;;;;;;5.23;4.83;;;;;;;9.23;94.67;100991.94;5035391;28;20209;-77
2024/03/21 10:27:13;;;;;;;5.50;5.00;;;;;;;9.10;95.16;101001.56;5034624;28;20214;-77
2024/03/21 10:29:40;;;;;;;5.03;4.37;;;;;;;9.20;94.28;101015.41;5035693;28;20253;-78
2024/03/21 10:32:15;;;;;;;5.03;4.50;;;;;;;9.44;94.57;101014.44;5034678;28;20218;-77
2024/03/21 10:34:48;;;;;;;7.03;4.17;;;;;;;9.51;93.02;101029.19;5035918;28;20639;-79
2024/03/21 10:37:13;;;;;;;4.80;4.17;;;;;;;9.45;92.58;101042.22;5035387;28;20244;-77
2024/03/21 10:39:41;;;;;;;5.40;4.33;;;;;;;9.69;91.08;101077.75;5036053;28;20322;-77
2024/03/21 10:42:14;;;;;;;10.93;4.03;;;;;;;9.36;91.82;101102.19;5034601;28;20208;-79
2024/03/21 10:44:44;;;;;;;6.53;4.37;;;;;;;9.18;92.15;101099.63;5036739;28;20219;-78
2024/03/21 10:47:10;;;;;;;6.70;4.27;;;;;;;9.40;92.57;101077.84;5035844;28;20212;-77
2024/03/21 10:49:37;;;;;;;5.33;4.23;;;;;;;9.70;90.88;101097.69;5034035;28;20237;-78
2024/03/21 10:52:04;;;;;;;5.13;3.70;;;;;;;9.74;90.15;101128.09;5034276;28;20274;-77
2024/03/21 10:54:38;;;;;;;6.07;5.07;;;;;;;9.68;90.08;101135.09;5035349;28;20244;-77
2024/03/21 10:57:15;;;;;;;4.57;4.17;;;;;;;9.39;91.38;101137.78;5034438;28;20296;-77
2024/03/21 10:59:42;;;;;;;4.83;4.37;;;;;;;9.60;91.13;101131.66;5035689;28;20276;-77
2024/03/21 11:02:13;;;;;;;4.73;3.60;;;;;;;9.78;90.42;101138.53;5034602;28;20240;-77
2024/03/21 11:04:41;;;;;;;5.03;4.47;;;;;;;9.88;89.89;101142.81;5035228;28;20210;-78
2024/03/21 11:07:09;;;;;;;4.97;4.20;;;;;;;9.67;90.22;101157.69;5035843;28;20201;-78
2024/03/21 11:09:36;;;;;;;5.17;3.73;;;;;;;9.94;89.51;101163.66;5034204;28;20237;-78
2024/03/21 11:12:01;;;;;;;5.37;4.50;;;;;;;9.84;89.15;101181.06;5035545;28;20209;-78